sensor_id;sensor_type;location;lat;lon;timestamp;temperature;humidity
12015;DHT22;6066;48.138;16.402;2023-04-01T00:00:23;10.90;99.90
12015;DHT22;6066;48.138;16.402;2023-04-01T00:02:49;11.00;99.90
12015;DHT22;6066;48.138;16.402;2023-04-01T00:05:16;11.00;99.90
12015;DHT22;6066;48.138;16.402;2023-04-01T00:07:43;11.00;99.90
12015;DHT22;6066;48.138;16.402;2023-04-01T00:10:10;11.00;99.90
12015;DHT22;6066;48.138;16.402;2023-04-01T00:12:37;11.00;99.90
12015;DHT22;6066;48.138;16.402;2023-04-01T00:15:04;11.10;99.90
12015;DHT22;6066;48.138;16.402;2023-04-01T00:17:33;11.00;99.90
12015;DHT22;6066;48.138;16.402;2023-04-01T00:20:00;11.00;99.90
12015;DHT22;6066;48.138;16.402;2023-04-01T00:22:29;11.00;99.90
12015;DHT22;6066;48.138;16.402;2023-04-01T00:24:56;11.10;99.90
12015;DHT22;6066;48.138;16.402;2023-04-01T00:27:23;11.10;99.90
12015;DHT22;6066;48.138;16.402;2023-04-01T00:29:50;11.10;99.90
12015;DHT22;6066;48.138;16.402;2023-04-01T00:32:16;11.00;99.90
12015;DHT22;6066;48.138;16.402;2023-04-01T00:34:44;11.00;99.90
12015;DHT22;6066;48.138;16.402;2023-04-01T00:37:11;11.00;99.90
12015;DHT22;6066;48.138;16.402;2023-04-01T00:39:38;11.00;99.90
12015;DHT22;6066;48.138;16.402;2023-04-01T00:42:05;11.00;99.90
12015;DHT22;6066;48.138;16.402;2023-04-01T00:44:34;10.90;99.90
12015;DHT22;6066;48.138;16.402;2023-04-01T00:47:01;10.90;99.90
12015;DHT22;6066;48.138;16.402;2023-04-01T00:49:29;10.90;99.90
12015;DHT22;6066;48.138;16.402;2023-04-01T00:51:58;10.90;99.90
12015;DHT22;6066;48.138;16.402;2023-04-01T00:54:27;10.80;99.90
12015;DHT22;6066;48.138;16.402;2023-04-01T00:56:55;10.80;99.90
12015;DHT22;6066;48.138;16.402;2023-04-01T00:59:24;10.80;99.90
12015;DHT22;6066;48.138;16.402;2023-04-01T01:01:51;10.80;99.90
12015;DHT22;6066;48.138;16.402;2023-04-01T01:04:21;10.80;99.90
12015;DHT22;6066;48.138;16.402;2023-04-01T01:06:50;10.80;99.90
12015;DHT22;6066;48.138;16.402;2023-04-01T01:09:27;10.80;99.90
12015;DHT22;6066;48.138;16.402;2023-04-01T01:11:57;10.80;99.90
12015;DHT22;6066;48.138;16.402;2023-04-01T01:14:29;10.80;99.90
12015;DHT22;6066;48.138;16.402;2023-04-01T01:17:01;10.70;99.90
12015;DHT22;6066;48.138;16.402;2023-04-01T01:19:36;10.70;99.90
12015;DHT22;6066;48.138;16.402;2023-04-01T01:22:23;10.70;99.90
12015;DHT22;6066;48.138;16.402;2023-04-01T01:24:57;10.70;99.90
12015;DHT22;6066;48.138;16.402;2023-04-01T01:27:29;10.60;99.90
12015;DHT22;6066;48.138;16.402;2023-04-01T01:32:51;10.60;99.90
12015;DHT22;6066;48.138;16.402;2023-04-01T01:35:24;10.60;99.90
12015;DHT22;6066;48.138;16.402;2023-04-01T01:37:53;10.60;99.90
12015;DHT22;6066;48.138;16.402;2023-04-01T01:40:21;10.60;99.90
12015;DHT22;6066;48.138;16.402;2023-04-01T01:42:50;10.60;99.90
12015;DHT22;6066;48.138;16.402;2023-04-01T01:45:18;10.50;99.90
12015;DHT22;6066;48.138;16.402;2023-04-01T01:47:46;10.60;99.90
12015;DHT22;6066;48.138;16.402;2023-04-01T01:50:14;10.60;99.90
12015;DHT22;6066;48.138;16.402;2023-04-01T01:52:43;10.60;99.90
12015;DHT22;6066;48.138;16.402;2023-04-01T01:55:23;10.50;99.90
12015;DHT22;6066;48.138;16.402;2023-04-01T01:57:50;10.50;99.90
12015;DHT22;6066;48.138;16.402;2023-04-01T02:00:17;10.50;99.90
12015;DHT22;6066;48.138;16.402;2023-04-01T02:02:45;10.50;99.90
12015;DHT22;6066;48.138;16.402;2023-04-01T02:05:14;10.50;99.90
12015;DHT22;6066;48.138;16.402;2023-04-01T02:07:44;10.40;99.90
12015;DHT22;6066;48.138;16.402;2023-04-01T02:10:13;10.40;99.90
12015;DHT22;6066;48.138;16.402;2023-04-01T02:12:40;10.40;99.90
12015;DHT22;6066;48.138;16.402;2023-04-01T02:15:09;10.40;99.90
12015;DHT22;6066;48.138;16.402;2023-04-01T02:17:37;10.40;99.90
12015;DHT22;6066;48.138;16.402;2023-04-01T02:20:06;10.40;99.90
12015;DHT22;6066;48.138;16.402;2023-04-01T02:22:35;10.30;99.90
12015;DHT22;6066;48.138;16.402;2023-04-01T02:25:05;10.30;99.90
12015;DHT22;6066;48.138;16.402;2023-04-01T02:27:33;10.20;99.90
12015;DHT22;6066;48.138;16.402;2023-04-01T02:29:59;10.20;99.90
12015;DHT22;6066;48.138;16.402;2023-04-01T02:32:26;10.10;99.90
12015;DHT22;6066;48.138;16.402;2023-04-01T02:34:54;10.20;99.90
12015;DHT22;6066;48.138;16.402;2023-04-01T02:37:21;10.20;99.90
12015;DHT22;6066;48.138;16.402;2023-04-01T02:39:48;10.20;99.90
12015;DHT22;6066;48.138;16.402;2023-04-01T02:42:16;10.10;99.90
12015;DHT22;6066;48.138;16.402;2023-04-01T02:44:42;10.10;99.90
12015;DHT22;6066;48.138;16.402;2023-04-01T02:47:09;10.10;99.90
12015;DHT22;6066;48.138;16.402;2023-04-01T02:49:36;10.10;99.90
12015;DHT22;6066;48.138;16.402;2023-04-01T02:52:02;10.10;99.90
12015;DHT22;6066;48.138;16.402;2023-04-01T02:54:29;10.10;99.90
12015;DHT22;6066;48.138;16.402;2023-04-01T02:56:56;10.10;99.90
12015;DHT22;6066;48.138;16.402;2023-04-01T02:59:24;10.10;99.90
12015;DHT22;6066;48.138;16.402;2023-04-01T03:01:51;10.20;99.90
12015;DHT22;6066;48.138;16.402;2023-04-01T03:04:17;10.10;99.90
12015;DHT22;6066;48.138;16.402;2023-04-01T03:06:44;10.10;99.90
12015;DHT22;6066;48.138;16.402;2023-04-01T03:09:11;10.00;99.90
12015;DHT22;6066;48.138;16.402;2023-04-01T03:11:37;10.00;99.90
12015;DHT22;6066;48.138;16.402;2023-04-01T03:14:04;10.00;99.90
12015;DHT22;6066;48.138;16.402;2023-04-01T03:16:32;10.00;99.90
12015;DHT22;6066;48.138;16.402;2023-04-01T03:18:59;10.00;99.90
12015;DHT22;6066;48.138;16.402;2023-04-01T03:21:27;10.00;99.90
12015;DHT22;6066;48.138;16.402;2023-04-01T03:23:54;10.00;99.90
12015;DHT22;6066;48.138;16.402;2023-04-01T03:26:20;10.00;99.90
12015;DHT22;6066;48.138;16.402;2023-04-01T03:28:48;9.90;99.90
12015;DHT22;6066;48.138;16.402;2023-04-01T03:31:14;9.80;99.90
12015;DHT22;6066;48.138;16.402;2023-04-01T03:33:43;9.80;99.90
12015;DHT22;6066;48.138;16.402;2023-04-01T03:36:10;9.80;99.90
12015;DHT22;6066;48.138;16.402;2023-04-01T03:38:38;9.80;99.90
12015;DHT22;6066;48.138;16.402;2023-04-01T03:41:05;9.80;99.90
12015;DHT22;6066;48.138;16.402;2023-04-01T03:43:32;9.80;99.90
12015;DHT22;6066;48.138;16.402;2023-04-01T03:45:58;9.80;99.90
12015;DHT22;6066;48.138;16.402;2023-04-01T03:48:25;9.80;99.90
12015;DHT22;6066;48.138;16.402;2023-04-01T03:50:53;9.80;99.90
12015;DHT22;6066;48.138;16.402;2023-04-01T03:53:20;9.80;99.90
12015;DHT22;6066;48.138;16.402;2023-04-01T03:55:46;9.80;99.90
12015;DHT22;6066;48.138;16.402;2023-04-01T03:58:13;9.80;99.90
12015;DHT22;6066;48.138;16.402;2023-04-01T04:00:40;9.70;99.90
12015;DHT22;6066;48.138;16.402;2023-04-01T04:03:07;9.70;99.90
12015;DHT22;6066;48.138;16.402;2023-04-01T04:05:33;9.80;99.90
12015;DHT22;6066;48.138;16.402;2023-04-01T04:08:02;9.80;99.90
12015;DHT22;6066;48.138;16.402;2023-04-01T04:10:29;9.70;99.90
12015;DHT22;6066;48.138;16.402;2023-04-01T04:12:55;9.70;99.90
12015;DHT22;6066;48.138;16.402;2023-04-01T04:15:22;9.80;99.90
12015;DHT22;6066;48.138;16.402;2023-04-01T04:17:49;9.70;99.90
12015;DHT22;6066;48.138;16.402;2023-04-01T04:20:16;9.70;99.90
12015;DHT22;6066;48.138;16.402;2023-04-01T04:22:42;9.70;99.90
12015;DHT22;6066;48.138;16.402;2023-04-01T04:25:10;9.80;99.90
12015;DHT22;6066;48.138;16.402;2023-04-01T04:27:37;9.80;99.90
12015;DHT22;6066;48.138;16.402;2023-04-01T04:30:05;9.80;99.90
12015;DHT22;6066;48.138;16.402;2023-04-01T04:32:32;9.80;99.90
12015;DHT22;6066;48.138;16.402;2023-04-01T04:34:58;9.90;99.90
12015;DHT22;6066;48.138;16.402;2023-04-01T04:37:25;9.90;99.90
12015;DHT22;6066;48.138;16.402;2023-04-01T04:39:52;9.90;99.90
12015;DHT22;6066;48.138;16.402;2023-04-01T04:42:20;9.90;99.90
12015;DHT22;6066;48.138;16.402;2023-04-01T04:44:47;9.90;99.90
12015;DHT22;6066;48.138;16.402;2023-04-01T04:47:13;9.90;99.90
12015;DHT22;6066;48.138;16.402;2023-04-01T04:49:40;9.90;99.90
12015;DHT22;6066;48.138;16.402;2023-04-01T04:52:07;9.90;99.90
12015;DHT22;6066;48.138;16.402;2023-04-01T04:54:33;9.90;99.90
12015;DHT22;6066;48.138;16.402;2023-04-01T04:57:00;9.90;99.90
12015;DHT22;6066;48.138;16.402;2023-04-01T04:59:28;9.90;99.90
12015;DHT22;6066;48.138;16.402;2023-04-01T05:01:55;9.90;99.90
12015;DHT22;6066;48.138;16.402;2023-04-01T05:04:22;9.90;99.90
12015;DHT22;6066;48.138;16.402;2023-04-01T05:06:48;9.90;99.90
12015;DHT22;6066;48.138;16.402;2023-04-01T05:09:17;9.80;99.90
12015;DHT22;6066;48.138;16.402;2023-04-01T05:11:43;9.80;99.90
12015;DHT22;6066;48.138;16.402;2023-04-01T05:14:12;9.70;99.90
12015;DHT22;6066;48.138;16.402;2023-04-01T05:16:40;9.80;99.90
12015;DHT22;6066;48.138;16.402;2023-04-01T05:19:06;9.80;99.90
12015;DHT22;6066;48.138;16.402;2023-04-01T05:21:33;9.80;99.90
12015;DHT22;6066;48.138;16.402;2023-04-01T05:24:00;9.80;99.90
12015;DHT22;6066;48.138;16.402;2023-04-01T05:26:26;9.90;99.90
12015;DHT22;6066;48.138;16.402;2023-04-01T05:28:53;9.90;99.90
12015;DHT22;6066;48.138;16.402;2023-04-01T05:31:20;10.00;99.90
12015;DHT22;6066;48.138;16.402;2023-04-01T05:33:50;10.00;99.90
12015;DHT22;6066;48.138;16.402;2023-04-01T05:36:17;10.00;99.90
12015;DHT22;6066;48.138;16.402;2023-04-01T05:38:43;10.00;99.90
12015;DHT22;6066;48.138;16.402;2023-04-01T05:41:11;10.00;99.90
12015;DHT22;6066;48.138;16.402;2023-04-01T05:43:37;10.00;99.90
12015;DHT22;6066;48.138;16.402;2023-04-01T05:46:05;10.00;99.90
12015;DHT22;6066;48.138;16.402;2023-04-01T05:48:32;10.10;99.90
12015;DHT22;6066;48.138;16.402;2023-04-01T05:51:01;10.10;99.90
12015;DHT22;6066;48.138;16.402;2023-04-01T05:53:27;10.20;99.90
12015;DHT22;6066;48.138;16.402;2023-04-01T05:55:54;10.20;99.90
12015;DHT22;6066;48.138;16.402;2023-04-01T05:58:21;10.30;99.90
12015;DHT22;6066;48.138;16.402;2023-04-01T06:00:47;10.40;99.90
12015;DHT22;6066;48.138;16.402;2023-04-01T06:03:14;10.50;99.90
12015;DHT22;6066;48.138;16.402;2023-04-01T06:05:41;10.50;99.90
12015;DHT22;6066;48.138;16.402;2023-04-01T06:08:13;10.70;99.90
12015;DHT22;6066;48.138;16.402;2023-04-01T06:10:44;10.70;99.90
12015;DHT22;6066;48.138;16.402;2023-04-01T06:13:17;10.80;99.90
12015;DHT22;6066;48.138;16.402;2023-04-01T06:15:49;10.90;99.90
12015;DHT22;6066;48.138;16.402;2023-04-01T06:18:32;11.00;99.90
12015;DHT22;6066;48.138;16.402;2023-04-01T06:21:04;11.10;99.90
12015;DHT22;6066;48.138;16.402;2023-04-01T06:23:42;11.20;99.90
12015;DHT22;6066;48.138;16.402;2023-04-01T06:26:18;11.30;99.90
12015;DHT22;6066;48.138;16.402;2023-04-01T06:28:56;11.30;99.90
12015;DHT22;6066;48.138;16.402;2023-04-01T06:31:50;11.40;99.90
12015;DHT22;6066;48.138;16.402;2023-04-01T06:34:31;11.40;99.90
12015;DHT22;6066;48.138;16.402;2023-04-01T06:39:46;11.50;99.90
12015;DHT22;6066;48.138;16.402;2023-04-01T06:42:21;11.60;99.90
12015;DHT22;6066;48.138;16.402;2023-04-01T06:44:53;11.60;99.90
12015;DHT22;6066;48.138;16.402;2023-04-01T06:47:26;11.60;99.90
12015;DHT22;6066;48.138;16.402;2023-04-01T06:49:56;11.60;99.90
12015;DHT22;6066;48.138;16.402;2023-04-01T06:52:26;11.70;99.90
12015;DHT22;6066;48.138;16.402;2023-04-01T06:55:00;11.70;99.90
12015;DHT22;6066;48.138;16.402;2023-04-01T06:57:29;11.70;99.90
12015;DHT22;6066;48.138;16.402;2023-04-01T06:59:58;11.70;99.90
12015;DHT22;6066;48.138;16.402;2023-04-01T07:02:28;11.70;99.90
12015;DHT22;6066;48.138;16.402;2023-04-01T07:04:58;11.70;99.90
12015;DHT22;6066;48.138;16.402;2023-04-01T07:07:27;11.60;99.90
12015;DHT22;6066;48.138;16.402;2023-04-01T07:09:56;11.60;99.90
12015;DHT22;6066;48.138;16.402;2023-04-01T07:12:31;11.60;99.90
12015;DHT22;6066;48.138;16.402;2023-04-01T07:15:01;11.60;99.90
12015;DHT22;6066;48.138;16.402;2023-04-01T07:17:31;11.60;99.90
12015;DHT22;6066;48.138;16.402;2023-04-01T07:20:01;11.60;99.90
12015;DHT22;6066;48.138;16.402;2023-04-01T07:22:29;11.70;99.90
12015;DHT22;6066;48.138;16.402;2023-04-01T07:25:01;11.80;99.90
12015;DHT22;6066;48.138;16.402;2023-04-01T07:27:29;11.80;99.90
12015;DHT22;6066;48.138;16.402;2023-04-01T07:29:56;11.90;99.90
12015;DHT22;6066;48.138;16.402;2023-04-01T07:32:27;11.90;99.90
12015;DHT22;6066;48.138;16.402;2023-04-01T07:35:03;11.90;99.90
12015;DHT22;6066;48.138;16.402;2023-04-01T07:37:34;11.90;99.90
12015;DHT22;6066;48.138;16.402;2023-04-01T07:40:09;11.90;99.90
12015;DHT22;6066;48.138;16.402;2023-04-01T07:42:43;12.00;99.90
12015;DHT22;6066;48.138;16.402;2023-04-01T07:45:15;12.00;99.90
12015;DHT22;6066;48.138;16.402;2023-04-01T07:47:46;12.00;99.90
12015;DHT22;6066;48.138;16.402;2023-04-01T07:50:20;12.10;99.90
12015;DHT22;6066;48.138;16.402;2023-04-01T07:52:49;12.20;99.90
12015;DHT22;6066;48.138;16.402;2023-04-01T07:55:23;12.30;99.90
12015;DHT22;6066;48.138;16.402;2023-04-01T07:57:52;12.40;99.90
12015;DHT22;6066;48.138;16.402;2023-04-01T08:00:24;12.50;99.90
12015;DHT22;6066;48.138;16.402;2023-04-01T08:03:04;12.50;99.90
12015;DHT22;6066;48.138;16.402;2023-04-01T08:05:36;12.50;99.90
12015;DHT22;6066;48.138;16.402;2023-04-01T08:08:08;12.60;99.90
12015;DHT22;6066;48.138;16.402;2023-04-01T08:10:40;12.60;99.90
12015;DHT22;6066;48.138;16.402;2023-04-01T08:13:13;12.70;99.90
12015;DHT22;6066;48.138;16.402;2023-04-01T08:15:42;12.70;99.90
12015;DHT22;6066;48.138;16.402;2023-04-01T08:18:14;12.80;99.90
12015;DHT22;6066;48.138;16.402;2023-04-01T08:20:44;12.70;99.90
12015;DHT22;6066;48.138;16.402;2023-04-01T08:23:13;12.70;99.90
12015;DHT22;6066;48.138;16.402;2023-04-01T08:25:43;12.80;99.90
12015;DHT22;6066;48.138;16.402;2023-04-01T08:28:15;13.00;99.90
12015;DHT22;6066;48.138;16.402;2023-04-01T08:30:43;13.20;99.90
12015;DHT22;6066;48.138;16.402;2023-04-01T08:33:11;13.30;99.90
12015;DHT22;6066;48.138;16.402;2023-04-01T08:35:39;13.30;99.90
12015;DHT22;6066;48.138;16.402;2023-04-01T08:38:09;13.40;99.90
12015;DHT22;6066;48.138;16.402;2023-04-01T08:46:10;13.40;99.90
12015;DHT22;6066;48.138;16.402;2023-04-01T08:48:43;13.40;99.90
12015;DHT22;6066;48.138;16.402;2023-04-01T08:51:26;13.40;99.90
12015;DHT22;6066;48.138;16.402;2023-04-01T08:54:02;13.30;99.90
12015;DHT22;6066;48.138;16.402;2023-04-01T08:56:33;13.30;99.90
12015;DHT22;6066;48.138;16.402;2023-04-01T08:59:09;13.30;99.90
12015;DHT22;6066;48.138;16.402;2023-04-01T09:01:54;13.30;99.90
12015;DHT22;6066;48.138;16.402;2023-04-01T09:04:25;13.50;99.90
12015;DHT22;6066;48.138;16.402;2023-04-01T09:06:56;13.60;99.90
12015;DHT22;6066;48.138;16.402;2023-04-01T09:17:53;14.10;99.90
12015;DHT22;6066;48.138;16.402;2023-04-01T09:20:32;14.10;99.90
12015;DHT22;6066;48.138;16.402;2023-04-01T09:23:13;14.10;99.90
12015;DHT22;6066;48.138;16.402;2023-04-01T09:25:48;14.10;99.90
12015;DHT22;6066;48.138;16.402;2023-04-01T09:28:18;14.00;99.90
12015;DHT22;6066;48.138;16.402;2023-04-01T09:31:01;14.00;99.90
12015;DHT22;6066;48.138;16.402;2023-04-01T09:33:46;14.10;99.90
12015;DHT22;6066;48.138;16.402;2023-04-01T09:36:20;14.20;99.90
12015;DHT22;6066;48.138;16.402;2023-04-01T09:38:55;14.10;99.90
12015;DHT22;6066;48.138;16.402;2023-04-01T09:41:26;14.00;99.90
12015;DHT22;6066;48.138;16.402;2023-04-01T09:44:03;13.90;99.90
12015;DHT22;6066;48.138;16.402;2023-04-01T09:46:35;13.90;99.90
12015;DHT22;6066;48.138;16.402;2023-04-01T09:49:17;13.80;99.90
12015;DHT22;6066;48.138;16.402;2023-04-01T09:51:50;13.80;99.90
12015;DHT22;6066;48.138;16.402;2023-04-01T09:54:24;14.00;99.90
12015;DHT22;6066;48.138;16.402;2023-04-01T09:56:58;14.30;99.90
12015;DHT22;6066;48.138;16.402;2023-04-01T09:59:49;14.30;99.90
12015;DHT22;6066;48.138;16.402;2023-04-01T10:02:32;14.30;99.90
12015;DHT22;6066;48.138;16.402;2023-04-01T10:08:01;14.30;99.90
12015;DHT22;6066;48.138;16.402;2023-04-01T10:10:45;14.20;99.90
12015;DHT22;6066;48.138;16.402;2023-04-01T10:13:20;14.20;99.90
12015;DHT22;6066;48.138;16.402;2023-04-01T10:16:10;14.20;99.90
12015;DHT22;6066;48.138;16.402;2023-04-01T10:21:45;14.40;99.90
12015;DHT22;6066;48.138;16.402;2023-04-01T10:24:21;14.70;99.90
12015;DHT22;6066;48.138;16.402;2023-04-01T10:26:56;14.90;99.90
12015;DHT22;6066;48.138;16.402;2023-04-01T10:29:36;14.90;99.90
12015;DHT22;6066;48.138;16.402;2023-04-01T10:32:15;14.80;99.90
12015;DHT22;6066;48.138;16.402;2023-04-01T10:37:49;14.30;99.90
12015;DHT22;6066;48.138;16.402;2023-04-01T10:40:33;14.20;99.90
12015;DHT22;6066;48.138;16.402;2023-04-01T10:51:25;14.20;99.90
12015;DHT22;6066;48.138;16.402;2023-04-01T10:54:02;14.30;99.90
12015;DHT22;6066;48.138;16.402;2023-04-01T10:56:41;14.50;99.90
12015;DHT22;6066;48.138;16.402;2023-04-01T11:04:50;14.60;99.90
12015;DHT22;6066;48.138;16.402;2023-04-01T11:07:47;14.70;99.90
12015;DHT22;6066;48.138;16.402;2023-04-01T11:24:14;14.90;99.90
12015;DHT22;6066;48.138;16.402;2023-04-01T11:26:45;14.90;99.90
12015;DHT22;6066;48.138;16.402;2023-04-01T11:29:30;14.90;99.90
12015;DHT22;6066;48.138;16.402;2023-04-01T11:32:07;15.00;99.90
12015;DHT22;6066;48.138;16.402;2023-04-01T11:34:43;15.20;99.90
12015;DHT22;6066;48.138;16.402;2023-04-01T11:37:16;15.30;99.90
12015;DHT22;6066;48.138;16.402;2023-04-01T11:39:51;15.30;99.90
12015;DHT22;6066;48.138;16.402;2023-04-01T11:42:21;15.30;99.90
12015;DHT22;6066;48.138;16.402;2023-04-01T11:44:52;15.10;99.90
12015;DHT22;6066;48.138;16.402;2023-04-01T11:47:25;15.10;99.90
12015;DHT22;6066;48.138;16.402;2023-04-01T11:49:57;14.90;99.90
12015;DHT22;6066;48.138;16.402;2023-04-01T11:52:34;14.80;99.90
12015;DHT22;6066;48.138;16.402;2023-04-01T11:55:19;14.90;99.90
12015;DHT22;6066;48.138;16.402;2023-04-01T11:57:57;14.80;99.90
12015;DHT22;6066;48.138;16.402;2023-04-01T12:00:53;14.80;99.90
12015;DHT22;6066;48.138;16.402;2023-04-01T12:06:07;14.90;99.90
12015;DHT22;6066;48.138;16.402;2023-04-01T12:08:37;14.90;99.90
12015;DHT22;6066;48.138;16.402;2023-04-01T12:11:08;15.00;99.90
12015;DHT22;6066;48.138;16.402;2023-04-01T12:13:42;15.10;99.90
12015;DHT22;6066;48.138;16.402;2023-04-01T12:18:58;15.30;99.90
12015;DHT22;6066;48.138;16.402;2023-04-01T12:21:27;15.40;99.90
12015;DHT22;6066;48.138;16.402;2023-04-01T12:29:41;15.60;99.90
12015;DHT22;6066;48.138;16.402;2023-04-01T12:32:13;15.60;99.90
12015;DHT22;6066;48.138;16.402;2023-04-01T12:34:49;15.50;99.90
12015;DHT22;6066;48.138;16.402;2023-04-01T12:37:26;15.50;99.90
12015;DHT22;6066;48.138;16.402;2023-04-01T12:40:01;15.50;99.90
12015;DHT22;6066;48.138;16.402;2023-04-01T12:42:41;15.40;99.90
12015;DHT22;6066;48.138;16.402;2023-04-01T12:45:22;15.30;99.90
12015;DHT22;6066;48.138;16.402;2023-04-01T12:47:56;15.20;99.90
12015;DHT22;6066;48.138;16.402;2023-04-01T12:50:31;15.10;99.90
12015;DHT22;6066;48.138;16.402;2023-04-01T12:53:07;15.40;99.90
12015;DHT22;6066;48.138;16.402;2023-04-01T12:55:38;15.80;99.90
12015;DHT22;6066;48.138;16.402;2023-04-01T13:01:04;15.70;99.90
12015;DHT22;6066;48.138;16.402;2023-04-01T13:03:53;15.60;99.90
12015;DHT22;6066;48.138;16.402;2023-04-01T13:06:28;15.50;99.90
12015;DHT22;6066;48.138;16.402;2023-04-01T13:09:01;15.50;99.90
12015;DHT22;6066;48.138;16.402;2023-04-01T13:11:33;15.60;99.90
12015;DHT22;6066;48.138;16.402;2023-04-01T13:16:53;16.00;99.90
12015;DHT22;6066;48.138;16.402;2023-04-01T13:19:24;16.40;99.90
12015;DHT22;6066;48.138;16.402;2023-04-01T13:21:54;16.70;99.90
12015;DHT22;6066;48.138;16.402;2023-04-01T13:24:25;17.10;99.90
12015;DHT22;6066;48.138;16.402;2023-04-01T13:26:55;17.20;99.90
12015;DHT22;6066;48.138;16.402;2023-04-01T13:29:23;17.20;99.90
12015;DHT22;6066;48.138;16.402;2023-04-01T13:31:59;17.30;99.90
12015;DHT22;6066;48.138;16.402;2023-04-01T13:34:33;17.50;99.90
12015;DHT22;6066;48.138;16.402;2023-04-01T13:37:04;17.70;99.90
12015;DHT22;6066;48.138;16.402;2023-04-01T13:39:44;18.00;99.90
12015;DHT22;6066;48.138;16.402;2023-04-01T13:42:16;18.20;99.90
12015;DHT22;6066;48.138;16.402;2023-04-01T13:44:45;17.80;99.90
12015;DHT22;6066;48.138;16.402;2023-04-01T13:50:12;17.40;99.90
12015;DHT22;6066;48.138;16.402;2023-04-01T13:55:39;17.80;99.90
12015;DHT22;6066;48.138;16.402;2023-04-01T13:58:15;17.90;99.90
12015;DHT22;6066;48.138;16.402;2023-04-01T14:00:48;17.90;99.90
12015;DHT22;6066;48.138;16.402;2023-04-01T14:03:30;18.00;99.90
12015;DHT22;6066;48.138;16.402;2023-04-01T14:11:31;18.00;99.90
12015;DHT22;6066;48.138;16.402;2023-04-01T14:14:03;18.00;99.90
12015;DHT22;6066;48.138;16.402;2023-04-01T14:19:18;18.00;99.90
12015;DHT22;6066;48.138;16.402;2023-04-01T14:21:51;18.00;99.90
12015;DHT22;6066;48.138;16.402;2023-04-01T14:24:23;17.90;99.90
12015;DHT22;6066;48.138;16.402;2023-04-01T14:27:10;17.60;99.90
12015;DHT22;6066;48.138;16.402;2023-04-01T14:29:42;17.20;99.90
12015;DHT22;6066;48.138;16.402;2023-04-01T14:32:15;17.10;99.90
12015;DHT22;6066;48.138;16.402;2023-04-01T14:34:53;17.10;99.90
12015;DHT22;6066;48.138;16.402;2023-04-01T14:37:29;17.20;99.90
12015;DHT22;6066;48.138;16.402;2023-04-01T14:40:04;17.30;99.90
12015;DHT22;6066;48.138;16.402;2023-04-01T14:48:23;17.20;99.90
12015;DHT22;6066;48.138;16.402;2023-04-01T14:50:51;16.90;99.90
12015;DHT22;6066;48.138;16.402;2023-04-01T14:53:25;16.80;99.90
12015;DHT22;6066;48.138;16.402;2023-04-01T14:55:52;16.60;99.90
12015;DHT22;6066;48.138;16.402;2023-04-01T14:58:21;16.40;99.90
12015;DHT22;6066;48.138;16.402;2023-04-01T15:00:54;16.40;99.90
12015;DHT22;6066;48.138;16.402;2023-04-01T15:03:25;16.50;99.90
12015;DHT22;6066;48.138;16.402;2023-04-01T15:05:54;16.50;99.90
12015;DHT22;6066;48.138;16.402;2023-04-01T15:08:23;16.40;99.90
12015;DHT22;6066;48.138;16.402;2023-04-01T15:13:42;16.20;99.90
12015;DHT22;6066;48.138;16.402;2023-04-01T15:16:15;16.20;99.90
12015;DHT22;6066;48.138;16.402;2023-04-01T15:18:47;16.30;99.90
12015;DHT22;6066;48.138;16.402;2023-04-01T15:21:18;16.30;99.90
12015;DHT22;6066;48.138;16.402;2023-04-01T15:23:52;16.30;99.90
12015;DHT22;6066;48.138;16.402;2023-04-01T15:26:28;16.20;99.90
12015;DHT22;6066;48.138;16.402;2023-04-01T15:29:12;16.20;99.90
12015;DHT22;6066;48.138;16.402;2023-04-01T15:31:44;16.10;99.90
12015;DHT22;6066;48.138;16.402;2023-04-01T15:34:20;16.00;99.90
12015;DHT22;6066;48.138;16.402;2023-04-01T15:36:51;15.80;99.90
12015;DHT22;6066;48.138;16.402;2023-04-01T15:39:19;15.70;99.90
12015;DHT22;6066;48.138;16.402;2023-04-01T15:42:04;15.60;99.90
12015;DHT22;6066;48.138;16.402;2023-04-01T15:47:30;15.30;99.90
12015;DHT22;6066;48.138;16.402;2023-04-01T15:50:02;15.20;99.90
12015;DHT22;6066;48.138;16.402;2023-04-01T15:52:36;15.20;99.90
12015;DHT22;6066;48.138;16.402;2023-04-01T15:55:14;15.10;99.90
12015;DHT22;6066;48.138;16.402;2023-04-01T15:57:46;15.10;99.90
12015;DHT22;6066;48.138;16.402;2023-04-01T16:12:12;14.60;99.90
12015;DHT22;6066;48.138;16.402;2023-04-01T16:14:43;14.60;99.90
12015;DHT22;6066;48.138;16.402;2023-04-01T16:17:23;14.70;99.90
12015;DHT22;6066;48.138;16.402;2023-04-01T16:19:54;14.60;99.90
12015;DHT22;6066;48.138;16.402;2023-04-01T16:22:23;14.60;99.90
12015;DHT22;6066;48.138;16.402;2023-04-01T16:24:55;14.50;99.90
12015;DHT22;6066;48.138;16.402;2023-04-01T16:27:27;14.40;99.90
12015;DHT22;6066;48.138;16.402;2023-04-01T16:29:57;14.30;99.90
12015;DHT22;6066;48.138;16.402;2023-04-01T16:32:29;14.20;99.90
12015;DHT22;6066;48.138;16.402;2023-04-01T16:35:01;14.10;99.90
12015;DHT22;6066;48.138;16.402;2023-04-01T16:37:32;14.10;99.90
12015;DHT22;6066;48.138;16.402;2023-04-01T16:40:02;14.00;99.90
12015;DHT22;6066;48.138;16.402;2023-04-01T16:42:40;13.90;99.90
12015;DHT22;6066;48.138;16.402;2023-04-01T16:45:16;13.80;99.90
12015;DHT22;6066;48.138;16.402;2023-04-01T16:47:45;13.70;99.90
12015;DHT22;6066;48.138;16.402;2023-04-01T16:50:13;13.70;99.90
12015;DHT22;6066;48.138;16.402;2023-04-01T16:52:48;13.60;99.90
12015;DHT22;6066;48.138;16.402;2023-04-01T16:55:25;13.60;99.90
12015;DHT22;6066;48.138;16.402;2023-04-01T16:58:01;13.50;99.90
12015;DHT22;6066;48.138;16.402;2023-04-01T17:00:28;13.50;99.90
12015;DHT22;6066;48.138;16.402;2023-04-01T17:03:02;13.40;99.90
12015;DHT22;6066;48.138;16.402;2023-04-01T17:05:41;13.30;99.90
12015;DHT22;6066;48.138;16.402;2023-04-01T17:08:10;13.30;99.90
12015;DHT22;6066;48.138;16.402;2023-04-01T17:10:42;13.30;99.90
12015;DHT22;6066;48.138;16.402;2023-04-01T17:13:22;13.20;99.90
12015;DHT22;6066;48.138;16.402;2023-04-01T17:15:53;13.10;99.90
12015;DHT22;6066;48.138;16.402;2023-04-01T17:18:25;13.00;99.90
12015;DHT22;6066;48.138;16.402;2023-04-01T17:20:55;12.90;99.90
12015;DHT22;6066;48.138;16.402;2023-04-01T17:23:26;12.80;99.90
12015;DHT22;6066;48.138;16.402;2023-04-01T17:25:57;12.70;99.90
12015;DHT22;6066;48.138;16.402;2023-04-01T17:28:34;12.60;99.90
12015;DHT22;6066;48.138;16.402;2023-04-01T17:31:05;12.50;99.90
12015;DHT22;6066;48.138;16.402;2023-04-01T17:33:46;12.50;99.90
12015;DHT22;6066;48.138;16.402;2023-04-01T17:36:21;12.40;99.90
12015;DHT22;6066;48.138;16.402;2023-04-01T17:38:59;12.30;99.90
12015;DHT22;6066;48.138;16.402;2023-04-01T17:41:32;12.30;99.90
12015;DHT22;6066;48.138;16.402;2023-04-01T17:44:08;12.20;99.90
12015;DHT22;6066;48.138;16.402;2023-04-01T17:46:44;12.10;99.90
12015;DHT22;6066;48.138;16.402;2023-04-01T17:49:17;12.00;99.90